sensor_id;sensor_type;location;lat;lon;timestamp;P1;durP1;ratioP1;P2;durP2;ratioP2
18166;SDS011;9208;42.688;23.404;2022-07-30T00:02:02;3.63;;;3.40;;
18166;SDS011;9208;42.688;23.404;2022-07-30T00:04:28;3.80;;;3.40;;
18166;SDS011;9208;42.688;23.404;2022-07-30T00:06:53;3.50;;;3.30;;
18166;SDS011;9208;42.688;23.404;2022-07-30T00:09:19;4.00;;;3.70;;
18166;SDS011;9208;42.688;23.404;2022-07-30T00:11:44;3.73;;;3.43;;
18166;SDS011;9208;42.688;23.404;2022-07-30T00:14:10;3.60;;;3.40;;
18166;SDS011;9208;42.688;23.404;2022-07-30T00:16:35;3.70;;;3.40;;
18166;SDS011;9208;42.688;23.404;2022-07-30T00:19:01;3.70;;;3.23;;
18166;SDS011;9208;42.688;23.404;2022-07-30T00:21:27;3.93;;;3.50;;
18166;SDS011;9208;42.688;23.404;2022-07-30T00:23:52;3.63;;;3.43;;
18166;SDS011;9208;42.688;23.404;2022-07-30T00:26:18;3.47;;;3.17;;
18166;SDS011;9208;42.688;23.404;2022-07-30T00:28:43;3.47;;;3.27;;
18166;SDS011;9208;42.688;23.404;2022-07-30T00:31:09;3.70;;;3.50;;
18166;SDS011;9208;42.688;23.404;2022-07-30T00:33:34;3.60;;;3.40;;
18166;SDS011;9208;42.688;23.404;2022-07-30T00:36:00;4.10;;;3.80;;
18166;SDS011;9208;42.688;23.404;2022-07-30T00:38:25;3.57;;;3.37;;
18166;SDS011;9208;42.688;23.404;2022-07-30T00:40:50;5.67;;;3.30;;
18166;SDS011;9208;42.688;23.404;2022-07-30T00:43:16;3.67;;;3.37;;
18166;SDS011;9208;42.688;23.404;2022-07-30T00:45:43;3.60;;;3.30;;
18166;SDS011;9208;42.688;23.404;2022-07-30T00:48:09;3.73;;;3.43;;
18166;SDS011;9208;42.688;23.404;2022-07-30T00:50:35;3.90;;;3.60;;
18166;SDS011;9208;42.688;23.404;2022-07-30T00:53:01;3.40;;;3.20;;
18166;SDS011;9208;42.688;23.404;2022-07-30T00:55:26;3.70;;;3.10;;
18166;SDS011;9208;42.688;23.404;2022-07-30T00:57:52;3.50;;;3.30;;
18166;SDS011;9208;42.688;23.404;2022-07-30T01:00:18;5.27;;;3.60;;
18166;SDS011;9208;42.688;23.404;2022-07-30T01:02:44;4.20;;;3.73;;
18166;SDS011;9208;42.688;23.404;2022-07-30T01:05:09;4.60;;;3.30;;
18166;SDS011;9208;42.688;23.404;2022-07-30T01:07:35;4.03;;;3.43;;
18166;SDS011;9208;42.688;23.404;2022-07-30T01:10:01;3.90;;;3.47;;
18166;SDS011;9208;42.688;23.404;2022-07-30T01:12:27;4.20;;;3.80;;
18166;SDS011;9208;42.688;23.404;2022-07-30T01:14:57;3.90;;;3.60;;
18166;SDS011;9208;42.688;23.404;2022-07-30T01:17:25;3.50;;;3.20;;
18166;SDS011;9208;42.688;23.404;2022-07-30T01:19:51;4.20;;;3.73;;
18166;SDS011;9208;42.688;23.404;2022-07-30T01:27:28;3.80;;;3.50;;
18166;SDS011;9208;42.688;23.404;2022-07-30T01:30:01;4.17;;;3.20;;
18166;SDS011;9208;42.688;23.404;2022-07-30T01:32:29;3.70;;;3.40;;
18166;SDS011;9208;42.688;23.404;2022-07-30T01:34:57;4.20;;;3.83;;
18166;SDS011;9208;42.688;23.404;2022-07-30T01:37:26;3.60;;;3.30;;
18166;SDS011;9208;42.688;23.404;2022-07-30T01:39:53;4.00;;;3.70;;
18166;SDS011;9208;42.688;23.404;2022-07-30T01:42:19;4.80;;;3.53;;
18166;SDS011;9208;42.688;23.404;2022-07-30T01:44:48;4.03;;;3.67;;
18166;SDS011;9208;42.688;23.404;2022-07-30T01:47:15;3.70;;;3.40;;
18166;SDS011;9208;42.688;23.404;2022-07-30T01:49:45;3.77;;;3.40;;
18166;SDS011;9208;42.688;23.404;2022-07-30T01:52:13;3.70;;;3.40;;
18166;SDS011;9208;42.688;23.404;2022-07-30T01:54:43;4.33;;;3.27;;
18166;SDS011;9208;42.688;23.404;2022-07-30T01:57:10;5.03;;;3.60;;
18166;SDS011;9208;42.688;23.404;2022-07-30T01:59:38;3.80;;;3.50;;
18166;SDS011;9208;42.688;23.404;2022-07-30T02:02:05;4.10;;;3.70;;
18166;SDS011;9208;42.688;23.404;2022-07-30T02:04:31;4.20;;;3.90;;
18166;SDS011;9208;42.688;23.404;2022-07-30T02:07:05;4.10;;;3.80;;
18166;SDS011;9208;42.688;23.404;2022-07-30T02:09:40;3.70;;;3.40;;
18166;SDS011;9208;42.688;23.404;2022-07-30T02:12:12;5.20;;;3.63;;
18166;SDS011;9208;42.688;23.404;2022-07-30T02:17:41;4.07;;;3.77;;
18166;SDS011;9208;42.688;23.404;2022-07-30T02:20:10;4.13;;;3.70;;
18166;SDS011;9208;42.688;23.404;2022-07-30T02:22:38;4.00;;;3.67;;
18166;SDS011;9208;42.688;23.404;2022-07-30T02:25:07;6.43;;;4.20;;
18166;SDS011;9208;42.688;23.404;2022-07-30T02:27:39;4.33;;;4.03;;
18166;SDS011;9208;42.688;23.404;2022-07-30T02:30:07;8.30;;;4.03;;
18166;SDS011;9208;42.688;23.404;2022-07-30T02:32:35;4.43;;;3.93;;
18166;SDS011;9208;42.688;23.404;2022-07-30T02:35:04;4.10;;;3.80;;
18166;SDS011;9208;42.688;23.404;2022-07-30T02:37:36;3.90;;;3.60;;
18166;SDS011;9208;42.688;23.404;2022-07-30T02:40:03;4.07;;;3.77;;
18166;SDS011;9208;42.688;23.404;2022-07-30T02:42:30;4.50;;;4.03;;
18166;SDS011;9208;42.688;23.404;2022-07-30T02:44:56;4.40;;;4.00;;
18166;SDS011;9208;42.688;23.404;2022-07-30T02:47:22;4.67;;;4.27;;
18166;SDS011;9208;42.688;23.404;2022-07-30T02:49:50;4.23;;;3.93;;
18166;SDS011;9208;42.688;23.404;2022-07-30T02:52:18;4.60;;;4.20;;
18166;SDS011;9208;42.688;23.404;2022-07-30T02:54:45;4.77;;;3.87;;
18166;SDS011;9208;42.688;23.404;2022-07-30T02:57:14;4.00;;;3.70;;
18166;SDS011;9208;42.688;23.404;2022-07-30T02:59:41;4.00;;;3.70;;
18166;SDS011;9208;42.688;23.404;2022-07-30T03:02:08;4.43;;;3.83;;
18166;SDS011;9208;42.688;23.404;2022-07-30T03:04:37;4.27;;;3.97;;
18166;SDS011;9208;42.688;23.404;2022-07-30T03:07:04;4.37;;;3.97;;
18166;SDS011;9208;42.688;23.404;2022-07-30T03:09:31;4.77;;;3.83;;
18166;SDS011;9208;42.688;23.404;2022-07-30T03:11:57;4.37;;;4.00;;
18166;SDS011;9208;42.688;23.404;2022-07-30T03:14:23;4.70;;;4.40;;
18166;SDS011;9208;42.688;23.404;2022-07-30T03:16:54;4.63;;;4.23;;
18166;SDS011;9208;42.688;23.404;2022-07-30T03:19:22;6.27;;;4.50;;
18166;SDS011;9208;42.688;23.404;2022-07-30T03:21:49;5.10;;;4.43;;
18166;SDS011;9208;42.688;23.404;2022-07-30T03:24:17;4.67;;;4.10;;
18166;SDS011;9208;42.688;23.404;2022-07-30T03:26:44;4.60;;;4.30;;
18166;SDS011;9208;42.688;23.404;2022-07-30T03:29:11;5.27;;;4.60;;
18166;SDS011;9208;42.688;23.404;2022-07-30T03:31:38;5.27;;;4.50;;
18166;SDS011;9208;42.688;23.404;2022-07-30T03:34:04;5.40;;;4.30;;
18166;SDS011;9208;42.688;23.404;2022-07-30T03:36:31;4.83;;;4.43;;
18166;SDS011;9208;42.688;23.404;2022-07-30T03:38:58;5.63;;;4.57;;
18166;SDS011;9208;42.688;23.404;2022-07-30T03:41:23;5.80;;;4.67;;
18166;SDS011;9208;42.688;23.404;2022-07-30T03:43:50;5.60;;;4.70;;
18166;SDS011;9208;42.688;23.404;2022-07-30T03:46:16;6.10;;;4.97;;
18166;SDS011;9208;42.688;23.404;2022-07-30T03:48:42;5.30;;;4.90;;
18166;SDS011;9208;42.688;23.404;2022-07-30T03:51:09;5.03;;;4.50;;
18166;SDS011;9208;42.688;23.404;2022-07-30T03:53:35;5.23;;;4.83;;
18166;SDS011;9208;42.688;23.404;2022-07-30T03:56:04;6.57;;;5.07;;
18166;SDS011;9208;42.688;23.404;2022-07-30T03:58:30;5.27;;;4.77;;
18166;SDS011;9208;42.688;23.404;2022-07-30T04:00:56;6.73;;;4.87;;
18166;SDS011;9208;42.688;23.404;2022-07-30T04:03:28;5.07;;;4.60;;
18166;SDS011;9208;42.688;23.404;2022-07-30T04:05:54;6.43;;;4.97;;
18166;SDS011;9208;42.688;23.404;2022-07-30T04:08:20;5.53;;;5.03;;
18166;SDS011;9208;42.688;23.404;2022-07-30T04:10:46;5.33;;;4.87;;
18166;SDS011;9208;42.688;23.404;2022-07-30T04:13:12;5.07;;;4.50;;
18166;SDS011;9208;42.688;23.404;2022-07-30T04:16:24;5.73;;;4.90;;
18166;SDS011;9208;42.688;23.404;2022-07-30T04:18:46;5.03;;;4.53;;
18166;SDS011;9208;42.688;23.404;2022-07-30T04:21:14;5.53;;;5.03;;
18166;SDS011;9208;42.688;23.404;2022-07-30T04:23:42;6.13;;;4.80;;
18166;SDS011;9208;42.688;23.404;2022-07-30T04:26:09;5.30;;;4.80;;
18166;SDS011;9208;42.688;23.404;2022-07-30T04:28:34;5.70;;;4.53;;
18166;SDS011;9208;42.688;23.404;2022-07-30T04:31:01;5.17;;;4.77;;
18166;SDS011;9208;42.688;23.404;2022-07-30T04:33:29;5.30;;;4.80;;
18166;SDS011;9208;42.688;23.404;2022-07-30T04:35:55;5.10;;;4.70;;
18166;SDS011;9208;42.688;23.404;2022-07-30T04:38:20;7.77;;;4.73;;
18166;SDS011;9208;42.688;23.404;2022-07-30T04:40:46;6.60;;;4.77;;
18166;SDS011;9208;42.688;23.404;2022-07-30T04:43:12;8.53;;;5.37;;
18166;SDS011;9208;42.688;23.404;2022-07-30T04:45:38;5.83;;;5.20;;
18166;SDS011;9208;42.688;23.404;2022-07-30T04:48:04;35.10;;;8.10;;
18166;SDS011;9208;42.688;23.404;2022-07-30T04:50:30;4.90;;;4.50;;
18166;SDS011;9208;42.688;23.404;2022-07-30T04:52:59;9.83;;;4.97;;
18166;SDS011;9208;42.688;23.404;2022-07-30T04:55:26;4.93;;;4.53;;
18166;SDS011;9208;42.688;23.404;2022-07-30T04:57:52;5.10;;;4.70;;
18166;SDS011;9208;42.688;23.404;2022-07-30T05:00:19;5.23;;;4.73;;
18166;SDS011;9208;42.688;23.404;2022-07-30T05:02:45;6.30;;;4.53;;
18166;SDS011;9208;42.688;23.404;2022-07-30T05:05:14;4.93;;;4.50;;
18166;SDS011;9208;42.688;23.404;2022-07-30T05:07:41;5.57;;;5.03;;
18166;SDS011;9208;42.688;23.404;2022-07-30T05:10:08;5.40;;;3.97;;
18166;SDS011;9208;42.688;23.404;2022-07-30T05:12:36;4.77;;;4.37;;
18166;SDS011;9208;42.688;23.404;2022-07-30T05:15:05;9.87;;;5.07;;
18166;SDS011;9208;42.688;23.404;2022-07-30T05:17:35;4.93;;;4.37;;
18166;SDS011;9208;42.688;23.404;2022-07-30T05:20:01;5.30;;;4.50;;
18166;SDS011;9208;42.688;23.404;2022-07-30T05:22:28;5.40;;;4.90;;
18166;SDS011;9208;42.688;23.404;2022-07-30T05:24:57;5.90;;;4.80;;
18166;SDS011;9208;42.688;23.404;2022-07-30T05:27:23;5.23;;;4.83;;
18166;SDS011;9208;42.688;23.404;2022-07-30T05:29:48;4.43;;;4.13;;
18166;SDS011;9208;42.688;23.404;2022-07-30T05:32:14;5.83;;;4.50;;
18166;SDS011;9208;42.688;23.404;2022-07-30T05:34:39;4.47;;;4.17;;
18166;SDS011;9208;42.688;23.404;2022-07-30T05:37:05;5.80;;;4.17;;
18166;SDS011;9208;42.688;23.404;2022-07-30T05:39:30;5.53;;;4.70;;
18166;SDS011;9208;42.688;23.404;2022-07-30T05:41:56;4.47;;;4.07;;
18166;SDS011;9208;42.688;23.404;2022-07-30T05:44:21;7.27;;;4.97;;
18166;SDS011;9208;42.688;23.404;2022-07-30T05:46:47;5.10;;;4.70;;
18166;SDS011;9208;42.688;23.404;2022-07-30T05:49:13;5.10;;;4.17;;
18166;SDS011;9208;42.688;23.404;2022-07-30T05:51:40;3.93;;;3.70;;
18166;SDS011;9208;42.688;23.404;2022-07-30T05:54:06;4.90;;;4.43;;
18166;SDS011;9208;42.688;23.404;2022-07-30T05:56:32;5.77;;;4.27;;
18166;SDS011;9208;42.688;23.404;2022-07-30T05:58:57;4.80;;;4.07;;
18166;SDS011;9208;42.688;23.404;2022-07-30T06:01:23;4.30;;;3.90;;
18166;SDS011;9208;42.688;23.404;2022-07-30T06:03:49;4.77;;;4.27;;
18166;SDS011;9208;42.688;23.404;2022-07-30T06:06:14;5.03;;;4.33;;
18166;SDS011;9208;42.688;23.404;2022-07-30T06:08:40;6.13;;;4.17;;
18166;SDS011;9208;42.688;23.404;2022-07-30T06:11:05;5.50;;;4.37;;
18166;SDS011;9208;42.688;23.404;2022-07-30T06:13:33;6.60;;;4.70;;
18166;SDS011;9208;42.688;23.404;2022-07-30T06:15:58;5.73;;;5.20;;
18166;SDS011;9208;42.688;23.404;2022-07-30T06:18:24;7.63;;;5.00;;
18166;SDS011;9208;42.688;23.404;2022-07-30T06:20:50;5.67;;;4.30;;
18166;SDS011;9208;42.688;23.404;2022-07-30T06:23:18;5.70;;;4.10;;
18166;SDS011;9208;42.688;23.404;2022-07-30T06:25:44;4.67;;;4.20;;
18166;SDS011;9208;42.688;23.404;2022-07-30T06:28:09;4.53;;;4.00;;
18166;SDS011;9208;42.688;23.404;2022-07-30T06:30:35;5.23;;;4.07;;
18166;SDS011;9208;42.688;23.404;2022-07-30T06:33:00;4.37;;;4.07;;
18166;SDS011;9208;42.688;23.404;2022-07-30T06:35:26;4.03;;;3.60;;
18166;SDS011;9208;42.688;23.404;2022-07-30T06:37:51;4.50;;;4.10;;
18166;SDS011;9208;42.688;23.404;2022-07-30T06:40:17;5.57;;;3.70;;
18166;SDS011;9208;42.688;23.404;2022-07-30T06:42:42;5.10;;;4.10;;
18166;SDS011;9208;42.688;23.404;2022-07-30T06:45:08;9.77;;;5.07;;
18166;SDS011;9208;42.688;23.404;2022-07-30T06:47:34;6.87;;;4.40;;
18166;SDS011;9208;42.688;23.404;2022-07-30T06:50:00;4.50;;;4.00;;
18166;SDS011;9208;42.688;23.404;2022-07-30T06:52:26;4.10;;;3.80;;
18166;SDS011;9208;42.688;23.404;2022-07-30T06:54:52;5.37;;;4.20;;
18166;SDS011;9208;42.688;23.404;2022-07-30T06:57:17;5.17;;;4.20;;
18166;SDS011;9208;42.688;23.404;2022-07-30T06:59:43;4.60;;;4.20;;
18166;SDS011;9208;42.688;23.404;2022-07-30T07:02:09;4.50;;;4.10;;
18166;SDS011;9208;42.688;23.404;2022-07-30T07:04:35;7.17;;;4.70;;
18166;SDS011;9208;42.688;23.404;2022-07-30T07:07:00;4.60;;;4.03;;
18166;SDS011;9208;42.688;23.404;2022-07-30T07:09:26;5.83;;;4.50;;
18166;SDS011;9208;42.688;23.404;2022-07-30T07:11:51;4.73;;;4.33;;
18166;SDS011;9208;42.688;23.404;2022-07-30T07:14:17;4.30;;;3.90;;
18166;SDS011;9208;42.688;23.404;2022-07-30T07:16:42;4.27;;;3.97;;
18166;SDS011;9208;42.688;23.404;2022-07-30T07:19:08;4.77;;;4.20;;
18166;SDS011;9208;42.688;23.404;2022-07-30T07:21:33;4.50;;;4.20;;
18166;SDS011;9208;42.688;23.404;2022-07-30T07:23:59;4.27;;;3.97;;
18166;SDS011;9208;42.688;23.404;2022-07-30T07:26:26;4.07;;;3.77;;
18166;SDS011;9208;42.688;23.404;2022-07-30T07:28:52;3.70;;;3.40;;
18166;SDS011;9208;42.688;23.404;2022-07-30T07:31:17;4.47;;;3.63;;
18166;SDS011;9208;42.688;23.404;2022-07-30T07:33:43;4.10;;;3.80;;
18166;SDS011;9208;42.688;23.404;2022-07-30T07:36:10;4.27;;;3.60;;
18166;SDS011;9208;42.688;23.404;2022-07-30T07:38:35;4.70;;;4.30;;
18166;SDS011;9208;42.688;23.404;2022-07-30T07:41:09;4.40;;;4.00;;
18166;SDS011;9208;42.688;23.404;2022-07-30T07:43:35;4.57;;;4.00;;
18166;SDS011;9208;42.688;23.404;2022-07-30T07:46:00;5.30;;;4.00;;
18166;SDS011;9208;42.688;23.404;2022-07-30T07:48:26;4.13;;;3.73;;
18166;SDS011;9208;42.688;23.404;2022-07-30T07:50:51;4.93;;;4.50;;
18166;SDS011;9208;42.688;23.404;2022-07-30T07:53:17;5.20;;;4.20;;
18166;SDS011;9208;42.688;23.404;2022-07-30T07:55:42;3.90;;;3.60;;
18166;SDS011;9208;42.688;23.404;2022-07-30T07:58:08;4.83;;;3.80;;
18166;SDS011;9208;42.688;23.404;2022-07-30T08:00:37;4.00;;;3.70;;
18166;SDS011;9208;42.688;23.404;2022-07-30T08:03:03;5.10;;;4.67;;
18166;SDS011;9208;42.688;23.404;2022-07-30T08:05:28;5.53;;;4.00;;
18166;SDS011;9208;42.688;23.404;2022-07-30T08:07:54;4.43;;;3.70;;
18166;SDS011;9208;42.688;23.404;2022-07-30T08:10:19;3.93;;;3.63;;
18166;SDS011;9208;42.688;23.404;2022-07-30T08:12:45;4.27;;;3.87;;
18166;SDS011;9208;42.688;23.404;2022-07-30T08:15:11;4.17;;;3.63;;
18166;SDS011;9208;42.688;23.404;2022-07-30T08:17:40;5.53;;;4.00;;
18166;SDS011;9208;42.688;23.404;2022-07-30T08:20:07;5.03;;;3.83;;
18166;SDS011;9208;42.688;23.404;2022-07-30T08:22:33;3.90;;;3.60;;
18166;SDS011;9208;42.688;23.404;2022-07-30T08:24:58;4.10;;;3.70;;
18166;SDS011;9208;42.688;23.404;2022-07-30T08:27:24;6.83;;;4.00;;
18166;SDS011;9208;42.688;23.404;2022-07-30T08:29:50;4.43;;;4.03;;
18166;SDS011;9208;42.688;23.404;2022-07-30T08:32:15;4.50;;;4.10;;
18166;SDS011;9208;42.688;23.404;2022-07-30T08:34:41;4.00;;;3.70;;
18166;SDS011;9208;42.688;23.404;2022-07-30T08:37:06;4.13;;;3.83;;
18166;SDS011;9208;42.688;23.404;2022-07-30T08:39:32;4.70;;;4.30;;
18166;SDS011;9208;42.688;23.404;2022-07-30T08:41:57;4.17;;;3.87;;
18166;SDS011;9208;42.688;23.404;2022-07-30T08:44:23;3.83;;;3.53;;
18166;SDS011;9208;42.688;23.404;2022-07-30T08:46:51;3.80;;;3.60;;
18166;SDS011;9208;42.688;23.404;2022-07-30T08:49:20;4.27;;;3.97;;
18166;SDS011;9208;42.688;23.404;2022-07-30T08:51:46;4.23;;;3.93;;
18166;SDS011;9208;42.688;23.404;2022-07-30T08:54:13;4.43;;;3.90;;
18166;SDS011;9208;42.688;23.404;2022-07-30T08:56:40;4.43;;;3.70;;
18166;SDS011;9208;42.688;23.404;2022-07-30T08:59:06;4.20;;;3.80;;
18166;SDS011;9208;42.688;23.404;2022-07-30T09:01:31;4.17;;;3.70;;
18166;SDS011;9208;42.688;23.404;2022-07-30T09:03:57;4.23;;;3.80;;
18166;SDS011;9208;42.688;23.404;2022-07-30T09:06:22;4.40;;;4.10;;
18166;SDS011;9208;42.688;23.404;2022-07-30T09:08:48;6.43;;;4.13;;
18166;SDS011;9208;42.688;23.404;2022-07-30T09:11:13;12.93;;;4.60;;
18166;SDS011;9208;42.688;23.404;2022-07-30T09:13:42;4.33;;;3.90;;
18166;SDS011;9208;42.688;23.404;2022-07-30T09:16:24;4.00;;;3.70;;
18166;SDS011;9208;42.688;23.404;2022-07-30T09:18:51;5.10;;;3.67;;
18166;SDS011;9208;42.688;23.404;2022-07-30T09:21:21;4.37;;;3.97;;
18166;SDS011;9208;42.688;23.404;2022-07-30T09:23:55;5.47;;;3.80;;
18166;SDS011;9208;42.688;23.404;2022-07-30T09:26:26;4.20;;;3.80;;
18166;SDS011;9208;42.688;23.404;2022-07-30T09:28:52;3.60;;;3.30;;
18166;SDS011;9208;42.688;23.404;2022-07-30T09:31:18;4.10;;;3.57;;
18166;SDS011;9208;42.688;23.404;2022-07-30T09:33:45;4.17;;;3.77;;
18166;SDS011;9208;42.688;23.404;2022-07-30T09:36:20;3.90;;;3.53;;
18166;SDS011;9208;42.688;23.404;2022-07-30T09:38:49;3.83;;;3.53;;
18166;SDS011;9208;42.688;23.404;2022-07-30T09:41:17;3.83;;;3.50;;
18166;SDS011;9208;42.688;23.404;2022-07-30T09:44:05;5.50;;;4.13;;
18166;SDS011;9208;42.688;23.404;2022-07-30T09:46:41;3.78;;;3.55;;
18166;SDS011;9208;42.688;23.404;2022-07-30T09:49:15;3.70;;;3.40;;
18166;SDS011;9208;42.688;23.404;2022-07-30T09:51:42;4.50;;;3.83;;
18166;SDS011;9208;42.688;23.404;2022-07-30T09:54:07;5.20;;;3.90;;
18166;SDS011;9208;42.688;23.404;2022-07-30T09:56:33;4.05;;;3.75;;
18166;SDS011;9208;42.688;23.404;2022-07-30T09:58:59;6.38;;;3.45;;
18166;SDS011;9208;42.688;23.404;2022-07-30T10:01:24;5.93;;;4.07;;
18166;SDS011;9208;42.688;23.404;2022-07-30T10:03:50;4.38;;;3.60;;
18166;SDS011;9208;42.688;23.404;2022-07-30T10:06:16;4.22;;;3.55;;
18166;SDS011;9208;42.688;23.404;2022-07-30T10:08:44;3.70;;;3.50;;
18166;SDS011;9208;42.688;23.404;2022-07-30T10:11:15;4.93;;;4.45;;
18166;SDS011;9208;42.688;23.404;2022-07-30T10:13:44;4.20;;;3.90;;
18166;SDS011;9208;42.688;23.404;2022-07-30T10:16:14;4.20;;;3.85;;
18166;SDS011;9208;42.688;23.404;2022-07-30T10:18:43;6.70;;;4.25;;
18166;SDS011;9208;42.688;23.404;2022-07-30T10:21:09;6.78;;;4.20;;
18166;SDS011;9208;42.688;23.404;2022-07-30T10:23:34;4.20;;;3.90;;
18166;SDS011;9208;42.688;23.404;2022-07-30T10:26:02;4.60;;;4.20;;
18166;SDS011;9208;42.688;23.404;2022-07-30T10:28:29;4.28;;;3.88;;
18166;SDS011;9208;42.688;23.404;2022-07-30T10:30:55;5.45;;;4.30;;
18166;SDS011;9208;42.688;23.404;2022-07-30T10:33:24;4.70;;;4.40;;
18166;SDS011;9208;42.688;23.404;2022-07-30T10:35:50;4.53;;;4.13;;
18166;SDS011;9208;42.688;23.404;2022-07-30T10:38:17;4.90;;;4.50;;
18166;SDS011;9208;42.688;23.404;2022-07-30T10:46:18;4.15;;;3.80;;
18166;SDS011;9208;42.688;23.404;2022-07-30T10:48:53;4.97;;;4.20;;
18166;SDS011;9208;42.688;23.404;2022-07-30T10:51:21;4.32;;;4.03;;
18166;SDS011;9208;42.688;23.404;2022-07-30T10:53:47;4.65;;;4.28;;
18166;SDS011;9208;42.688;23.404;2022-07-30T10:56:16;5.25;;;4.72;;
18166;SDS011;9208;42.688;23.404;2022-07-30T11:04:32;5.63;;;5.22;;
18166;SDS011;9208;42.688;23.404;2022-07-30T11:09:52;5.63;;;5.22;;
18166;SDS011;9208;42.688;23.404;2022-07-30T11:15:06;7.53;;;6.32;;
18166;SDS011;9208;42.688;23.404;2022-07-30T11:20:27;8.70;;;7.90;;
18166;SDS011;9208;42.688;23.404;2022-07-30T11:22:54;8.73;;;8.02;;
18166;SDS011;9208;42.688;23.404;2022-07-30T11:27:59;9.48;;;8.63;;
18166;SDS011;9208;42.688;23.404;2022-07-30T11:32:56;8.82;;;8.20;;
18166;SDS011;9208;42.688;23.404;2022-07-30T11:35:28;7.60;;;7.00;;
18166;SDS011;9208;42.688;23.404;2022-07-30T11:38:06;8.13;;;7.45;;
18166;SDS011;9208;42.688;23.404;2022-07-30T11:40:37;8.38;;;7.63;;
18166;SDS011;9208;42.688;23.404;2022-07-30T11:46:09;7.63;;;6.68;;
18166;SDS011;9208;42.688;23.404;2022-07-30T11:48:37;6.65;;;6.15;;
18166;SDS011;9208;42.688;23.404;2022-07-30T11:51:04;6.57;;;5.97;;
18166;SDS011;9208;42.688;23.404;2022-07-30T11:53:30;7.03;;;6.45;;
18166;SDS011;9208;42.688;23.404;2022-07-30T11:55:56;6.82;;;6.20;;
18166;SDS011;9208;42.688;23.404;2022-07-30T11:58:34;7.10;;;6.40;;
18166;SDS011;9208;42.688;23.404;2022-07-30T12:01:03;6.47;;;5.97;;
18166;SDS011;9208;42.688;23.404;2022-07-30T12:03:29;7.00;;;6.40;;
18166;SDS011;9208;42.688;23.404;2022-07-30T12:06:05;5.95;;;5.55;;
18166;SDS011;9208;42.688;23.404;2022-07-30T12:08:39;6.65;;;6.10;;
18166;SDS011;9208;42.688;23.404;2022-07-30T12:11:08;7.53;;;6.03;;
18166;SDS011;9208;42.688;23.404;2022-07-30T12:13:34;6.95;;;6.30;;
18166;SDS011;9208;42.688;23.404;2022-07-30T12:16:02;6.65;;;6.25;;
18166;SDS011;9208;42.688;23.404;2022-07-30T12:18:32;6.80;;;6.20;;
18166;SDS011;9208;42.688;23.404;2022-07-30T12:21:01;6.68;;;6.18;;
18166;SDS011;9208;42.688;23.404;2022-07-30T12:23:29;14.55;;;5.88;;
18166;SDS011;9208;42.688;23.404;2022-07-30T12:25:56;7.00;;;6.28;;
18166;SDS011;9208;42.688;23.404;2022-07-30T12:28:29;10.07;;;6.38;;
18166;SDS011;9208;42.688;23.404;2022-07-30T12:30:57;6.00;;;5.50;;
18166;SDS011;9208;42.688;23.404;2022-07-30T12:33:24;6.13;;;5.63;;
18166;SDS011;9208;42.688;23.404;2022-07-30T12:38:18;5.95;;;5.55;;
18166;SDS011;9208;42.688;23.404;2022-07-30T12:43:16;6.13;;;5.63;;
18166;SDS011;9208;42.688;23.404;2022-07-30T12:45:42;6.22;;;5.65;;
18166;SDS011;9208;42.688;23.404;2022-07-30T12:48:11;6.25;;;5.72;;
18166;SDS011;9208;42.688;23.404;2022-07-30T12:50:36;5.90;;;5.38;;
18166;SDS011;9208;42.688;23.404;2022-07-30T12:53:02;5.70;;;5.30;;
18166;SDS011;9208;42.688;23.404;2022-07-30T12:55:31;5.50;;;5.10;;
18166;SDS011;9208;42.688;23.404;2022-07-30T13:00:26;5.75;;;5.35;;
18166;SDS011;9208;42.688;23.404;2022-07-30T13:03:21;6.03;;;5.53;;
18166;SDS011;9208;42.688;23.404;2022-07-30T13:05:49;6.15;;;5.40;;
18166;SDS011;9208;42.688;23.404;2022-07-30T13:08:16;6.05;;;5.50;;
18166;SDS011;9208;42.688;23.404;2022-07-30T13:10:54;5.57;;;5.15;;
18166;SDS011;9208;42.688;23.404;2022-07-30T13:13:21;5.60;;;5.20;;
18166;SDS011;9208;42.688;23.404;2022-07-30T13:16:00;5.47;;;5.07;;
18166;SDS011;9208;42.688;23.404;2022-07-30T13:18:27;6.13;;;5.43;;
18166;SDS011;9208;42.688;23.404;2022-07-30T13:20:54;5.72;;;5.22;;
18166;SDS011;9208;42.688;23.404;2022-07-30T13:23:21;6.05;;;5.07;;
18166;SDS011;9208;42.688;23.404;2022-07-30T13:25:47;5.32;;;4.93;;
18166;SDS011;9208;42.688;23.404;2022-07-30T13:28:12;5.45;;;4.95;;
18166;SDS011;9208;42.688;23.404;2022-07-30T13:30:37;6.70;;;5.20;;
18166;SDS011;9208;42.688;23.404;2022-07-30T13:33:03;5.30;;;5.00;;
18166;SDS011;9208;42.688;23.404;2022-07-30T13:35:28;5.13;;;4.82;;
18166;SDS011;9208;42.688;23.404;2022-07-30T13:37:54;5.22;;;4.82;;
18166;SDS011;9208;42.688;23.404;2022-07-30T13:40:21;5.75;;;5.32;;
18166;SDS011;9208;42.688;23.404;2022-07-30T13:42:46;5.53;;;5.00;;
18166;SDS011;9208;42.688;23.404;2022-07-30T13:45:12;5.00;;;4.57;;
18166;SDS011;9208;42.688;23.404;2022-07-30T13:47:37;4.78;;;4.38;;
18166;SDS011;9208;42.688;23.404;2022-07-30T13:50:03;5.53;;;4.97;;
18166;SDS011;9208;42.688;23.404;2022-07-30T13:52:28;5.43;;;4.93;;
18166;SDS011;9208;42.688;23.404;2022-07-30T13:54:54;5.57;;;5.07;;
18166;SDS011;9208;42.688;23.404;2022-07-30T13:57:19;5.63;;;5.18;;
18166;SDS011;9208;42.688;23.404;2022-07-30T13:59:45;5.43;;;4.93;;
18166;SDS011;9208;42.688;23.404;2022-07-30T14:02:10;5.75;;;5.15;;
18166;SDS011;9208;42.688;23.404;2022-07-30T14:04:36;5.32;;;4.95;;
18166;SDS011;9208;42.688;23.404;2022-07-30T14:07:01;5.30;;;4.80;;
18166;SDS011;9208;42.688;23.404;2022-07-30T14:09:30;5.70;;;5.20;;
18166;SDS011;9208;42.688;23.404;2022-07-30T14:11:55;5.03;;;4.50;;
18166;SDS011;9208;42.688;23.404;2022-07-30T14:14:21;5.45;;;5.05;;
18166;SDS011;9208;42.688;23.404;2022-07-30T14:16:47;5.47;;;5.13;;
18166;SDS011;9208;42.688;23.404;2022-07-30T14:19:15;5.55;;;5.05;;
18166;SDS011;9208;42.688;23.404;2022-07-30T14:21:40;5.10;;;4.80;;
18166;SDS011;9208;42.688;23.404;2022-07-30T14:24:06;5.80;;;5.40;;
18166;SDS011;9208;42.688;23.404;2022-07-30T14:26:32;5.63;;;5.22;;
18166;SDS011;9208;42.688;23.404;2022-07-30T14:28:57;5.65;;;5.20;;
18166;SDS011;9208;42.688;23.404;2022-07-30T14:31:23;5.38;;;4.97;;
18166;SDS011;9208;42.688;23.404;2022-07-30T14:33:48;5.38;;;4.97;;
18166;SDS011;9208;42.688;23.404;2022-07-30T14:36:13;5.35;;;4.85;;
18166;SDS011;9208;42.688;23.404;2022-07-30T14:38:39;5.00;;;4.70;;
18166;SDS011;9208;42.688;23.404;2022-07-30T14:41:05;5.45;;;5.07;;
18166;SDS011;9208;42.688;23.404;2022-07-30T14:43:31;5.18;;;4.78;;
18166;SDS011;9208;42.688;23.404;2022-07-30T14:45:56;6.75;;;6.22;;
18166;SDS011;9208;42.688;23.404;2022-07-30T14:48:22;6.40;;;5.70;;
18166;SDS011;9208;42.688;23.404;2022-07-30T14:50:47;9.40;;;5.72;;
18166;SDS011;9208;42.688;23.404;2022-07-30T14:53:13;9.80;;;6.70;;
18166;SDS011;9208;42.688;23.404;2022-07-30T14:55:38;10.35;;;6.88;;
18166;SDS011;9208;42.688;23.404;2022-07-30T14:58:04;6.60;;;5.80;;
18166;SDS011;9208;42.688;23.404;2022-07-30T15:00:29;8.23;;;6.63;;
18166;SDS011;9208;42.688;23.404;2022-07-30T15:02:54;6.68;;;5.57;;
18166;SDS011;9208;42.688;23.404;2022-07-30T15:05:20;6.28;;;5.78;;
18166;SDS011;9208;42.688;23.404;2022-07-30T15:07:45;5.65;;;5.18;;
18166;SDS011;9208;42.688;23.404;2022-07-30T15:10:11;6.50;;;6.00;;
18166;SDS011;9208;42.688;23.404;2022-07-30T15:12:36;6.63;;;6.03;;
18166;SDS011;9208;42.688;23.404;2022-07-30T15:15:03;7.28;;;6.68;;
18166;SDS011;9208;42.688;23.404;2022-07-30T15:17:29;6.47;;;5.88;;
18166;SDS011;9208;42.688;23.404;2022-07-30T15:19:55;7.15;;;6.32;;
18166;SDS011;9208;42.688;23.404;2022-07-30T15:22:20;8.07;;;6.53;;
18166;SDS011;9208;42.688;23.404;2022-07-30T15:24:46;5.45;;;5.00;;
18166;SDS011;9208;42.688;23.404;2022-07-30T15:27:12;6.30;;;5.80;;
18166;SDS011;9208;42.688;23.404;2022-07-30T15:29:38;8.10;;;5.07;;
18166;SDS011;9208;42.688;23.404;2022-07-30T15:32:03;4.93;;;4.63;;